Map

Track Data

SID SEASON NUMBER BASIN SUBBASIN NAME ISO_TIME NATURE LAT LON WMO_WIND WMO_PRES WMO_AGENCY TRACK_TYPE DIST2LAND LANDFALL IFLAG USA_AGENCY USA_ATCF_ID USA_LAT USA_LON USA_RECORD USA_STATUS USA_WIND USA_PRES USA_SSHS USA_R34_NE USA_R34_SE USA_R34_SW USA_R34_NW USA_R50_NE USA_R50_SE USA_R50_SW USA_R50_NW USA_R64_NE USA_R64_SE USA_R64_SW USA_R64_NW USA_POCI USA_ROCI USA_RMW USA_EYE TOKYO_LAT TOKYO_LON TOKYO_GRADE TOKYO_WIND TOKYO_PRES TOKYO_R50_DIR TOKYO_R50_LONG TOKYO_R50_SHORT TOKYO_R30_DIR TOKYO_R30_LONG TOKYO_R30_SHORT TOKYO_LAND CMA_LAT CMA_LON CMA_CAT CMA_WIND CMA_PRES HKO_LAT HKO_LON HKO_CAT HKO_WIND HKO_PRES NEWDELHI_LAT NEWDELHI_LON NEWDELHI_GRADE NEWDELHI_WIND NEWDELHI_PRES NEWDELHI_CI NEWDELHI_DP NEWDELHI_POCI REUNION_LAT REUNION_LON REUNION_TYPE REUNION_WIND REUNION_PRES REUNION_TNUM REUNION_CI REUNION_RMW REUNION_R34_NE REUNION_R34_SE REUNION_R34_SW REUNION_R34_NW REUNION_R50_NE REUNION_R50_SE REUNION_R50_SW REUNION_R50_NW REUNION_R64_NE REUNION_R64_SE REUNION_R64_SW REUNION_R64_NW BOM_LAT BOM_LON BOM_TYPE BOM_WIND BOM_PRES BOM_TNUM BOM_CI BOM_RMW BOM_R34_NE BOM_R34_SE BOM_R34_SW BOM_R34_NW BOM_R50_NE BOM_R50_SE BOM_R50_SW BOM_R50_NW BOM_R64_NE BOM_R64_SE BOM_R64_SW BOM_R64_NW BOM_ROCI BOM_POCI BOM_EYE BOM_POS_METHOD BOM_PRES_METHOD NADI_LAT NADI_LON NADI_CAT NADI_WIND NADI_PRES WELLINGTON_LAT WELLINGTON_LON WELLINGTON_WIND WELLINGTON_PRES DS824_LAT DS824_LON DS824_STAGE DS824_WIND DS824_PRES TD9636_LAT TD9636_LON TD9636_STAGE TD9636_WIND TD9636_PRES TD9635_LAT TD9635_LON TD9635_WIND TD9635_PRES TD9635_ROCI NEUMANN_LAT NEUMANN_LON NEUMANN_CLASS NEUMANN_WIND NEUMANN_PRES MLC_LAT MLC_LON MLC_CLASS MLC_WIND MLC_PRES USA_GUST BOM_GUST BOM_GUST_PER REUNION_GUST REUNION_GUST_PER USA_SEAHGT USA_SEARAD_NE USA_SEARAD_SE USA_SEARAD_SW USA_SEARAD_NW STORM_SPEED STORM_DIR
1953014S19035 1953 4 SI MM NOT_NAMED 1953-01-14 06:00:00 TS -18.9000 35.0000 main 0 0 O________OO___ jtwc_sh SH071953 -18.9000 35.0000 -1 -18.9000 35.0000 TC 25 -18.9000 35.0000 7 7 99
1953014S19035 1953 4 SI MM NOT_NAMED 1953-01-14 09:00:00 TS -18.9503 35.3543 main 0 0 P________PP___ SH071953 -18.9502 35.3675 -1 -18.9502 35.3675 TC 25 -18.9506 35.3279 7 7 99
1953014S19035 1953 4 SI MM NOT_NAMED 1953-01-14 12:00:00 TS -19.0002 35.6816 main 0 0 O________OP___ jtwc_sh SH071953 -19.0000 35.7000 -1 -19.0000 35.7000 TC 25 -19.0007 35.6448 7 6 100
1953014S19035 1953 4 SI MM NOT_NAMED 1953-01-14 15:00:00 TS -19.0501 35.9614 main 15 15 P________PP___ SH071953 -19.0499 35.9725 -1 -19.0499 35.9725 TC 30 -19.0504 35.9393 7 5 102
1953014S19035 1953 4 SI MM NOT_NAMED 1953-01-14 18:00:00 TS -19.1000 36.2000 main 22 22 O________OO___ jtwc_sh SH071953 -19.1000 36.2000 -1 -19.1000 36.2000 TC 35 -19.1000 36.2000 2 4 103
1953014S19035 1953 4 SI MM NOT_NAMED 1953-01-14 21:00:00 TS -19.1499 36.4119 main 24 24 P________PP___ SH071953 -19.1500 36.4075 -1 -19.1500 36.4075 TC 35 -19.1497 36.4207 2 4 105
1953014S19035 1953 4 SI MM NOT_NAMED 1953-01-15 00:00:00 TS -19.1999 36.6050 main 46 46 O________OP___ jtwc_sh SH071953 -19.2000 36.6000 -1 -19.2000 36.6000 TC 35 -19.1996 36.6151 2 4 105
1953014S19035 1953 4 SI MM NOT_NAMED 1953-01-15 03:00:00 TS -19.2499 36.7957 main 62 62 P________PP___ SH071953 -19.2500 36.7925 -1 -19.2500 36.7925 TC 35 -19.2497 36.8020 2 4 105
1953014S19035 1953 4 SI MM NOT_NAMED 1953-01-15 06:00:00 TS -19.3000 37.0000 main 86 86 O________OO___ jtwc_sh SH071953 -19.3000 37.0000 -1 -19.3000 37.0000 TC 35 -19.3000 37.0000 2 4 103
1953014S19035 1953 4 SI MM NOT_NAMED 1953-01-15 09:00:00 TS -19.3500 37.2470 main 109 109 P________PP___ SH071953 -19.3500 37.2425 -1 -19.3500 37.2425 TC 35 -19.3502 37.2559 2 5 102
1953014S19035 1953 4 SI MM NOT_NAMED 1953-01-15 12:00:00 TS -19.4001 37.5075 main 137 137 O________OP___ jtwc_sh SH071953 -19.4000 37.5000 -1 -19.4000 37.5000 TC 35 -19.4002 37.5225 2 5 101
1953014S19035 1953 4 SI MM NOT_NAMED 1953-01-15 15:00:00 TS -19.4501 37.7693 main 169 169 P________PP___ SH071953 -19.4500 37.7650 -1 -19.4500 37.7650 TC 35 -19.4502 37.7778 2 5 102
1953014S19035 1953 4 SI MM NOT_NAMED 1953-01-15 18:00:00 TS -19.5000 38.0000 main 185 185 O________OO___ jtwc_sh SH071953 -19.5000 38.0000 -1 -19.5000 38.0000 TC 35 -19.5000 38.0000 2 4 105
1953014S19035 1953 4 SI MM NOT_NAMED 1953-01-15 21:00:00 TS -19.5472 38.1646 main 199 199 P________PP___ SH071953 -19.5500 38.1725 -1 -19.5500 38.1725 TC 35 -19.5416 38.1489 2 3 109
1953014S19035 1953 4 SI MM NOT_NAMED 1953-01-16 00:00:00 TS -19.5949 38.2884 main 214 214 O________OP___ jtwc_sh SH071953 -19.6000 38.3000 -1 -19.6000 38.3000 TC 35 -19.5846 38.2652 2 2 114
1953014S19035 1953 4 SI MM NOT_NAMED 1953-01-16 03:00:00 TS -19.6401 38.3863 main 222 222 P________PP___ SH071953 -19.6424 38.3926 -1 -19.6424 38.3926 TC 35 -19.6354 38.3739 2 3 133
1953014S19035 1953 4 SI MM NOT_NAMED 1953-01-16 06:00:00 TS -19.7923 38.5154 reunion main 245 245 O____O___OO___ jtwc_sh SH071953 -19.7000 38.5000 -1 -20.9000 38.7000 99 9.90000 -19.7000 38.5000 TC 35 -19.7000 38.5000 2 4 137
1953014S19035 1953 4 SI MM NOT_NAMED 1953-01-16 09:00:00 TS -19.9575 38.6970 main 276 276 P____P___PP___ SH071953 -19.7925 38.6850 -1 -20.9532 38.7662 99 -19.7925 38.6850 TC 35 -19.7898 38.6864 2 5 133
1953014S19035 1953 4 SI MM NOT_NAMED 1953-01-16 12:00:00 TS -20.1192 38.8848 main 298 298 O____P___OP___ jtwc_sh SH071953 -19.9000 38.9000 -1 -21.0060 38.8345 99 -19.9000 38.9000 TC 35 -19.8926 38.8923 2 5 132
1953014S19035 1953 4 SI MM NOT_NAMED 1953-01-16 15:00:00 TS -20.2681 39.0560 main 329 329 P____P___PP___ SH071953 -20.0075 39.1075 -1 -21.0583 38.9068 99 -20.0075 39.1075 TC 35 -19.9992 39.1021 2 4 126
1953014S19035 1953 4 SI MM NOT_NAMED 1953-01-16 18:00:00 TS -20.3524 39.2213 main 344 344 O____P___OO___ jtwc_sh SH071953 -20.1000 39.3000 -1 -21.1096 38.9852 99 -20.1000 39.3000 TC 35 -20.1000 39.3000 2 3 116
1953014S19035 1953 4 SI MM NOT_NAMED 1953-01-16 21:00:00 TS -20.4094 39.3618 main 359 359 P____P___PP___ SH071953 -20.1500 39.4576 -1 -21.1598 39.0717 99 -20.1500 39.4576 TC 35 -20.1780 39.4605 2 3 114
1953014S19035 1953 4 SI MM NOT_NAMED 1953-01-17 00:00:00 TS -20.4646 39.4940 main 374 374 O____P___OP___ jtwc_sh SH071953 -20.2000 39.6000 -1 -21.2084 39.1683 99 -20.2000 39.6000 TC 35 -20.2498 39.6077 2 3 117
1953014S19035 1953 4 SI MM NOT_NAMED 1953-01-17 03:00:00 TS -20.5405 39.6320 main 382 382 P____P___PP___ SH071953 -20.2925 39.7500 -1 -21.2553 39.2771 99 -20.2925 39.7500 TC 35 -20.3218 39.7511 2 3 122
1953014S19035 1953 4 SI MM NOT_NAMED 1953-01-17 06:00:00 TS -20.6250 39.7750 reunion main 394 380 O____O___OO___ jtwc_sh SH071953 -20.4000 39.9000 -1 -21.3000 39.4000 99 9.90000 -20.4000 39.9000 TC 35 -20.4000 39.9000 2 3 121
1953014S19035 1953 4 SI MM NOT_NAMED 1953-01-17 09:00:00 TS -20.7080 39.9257 main 380 356 P____P___PP___ SH071953 -20.5000 40.0425 -1 -21.3431 39.5377 99 -20.5000 40.0425 TC 35 -20.4888 40.0800 2 3 120
1953014S19035 1953 4 SI MM NOT_NAMED 1953-01-17 12:00:00 TS -20.7935 40.0875 main 356 333 O____P___OP___ jtwc_sh SH071953 -20.6000 40.2000 -1 -21.3889 39.6849 99 -20.6000 40.2000 TC 35 -20.5851 40.2650 2 4 118
1953014S19035 1953 4 SI MM NOT_NAMED 1953-01-17 15:00:00 TS -20.8828 40.2731 main 333 318 P____P___PP___ SH071953 -20.7000 40.4075 -1 -21.4421 39.8351 99 -20.7000 40.4075 TC 35 -20.6888 40.4425 2 4 119
1953014S19035 1953 4 SI MM NOT_NAMED 1953-01-17 18:00:00 TS -20.9770 40.4454 main 318 295 O____P___OO___ jtwc_sh SH071953 -20.8000 40.6000 -1 -21.5081 39.9816 99 -20.8000 40.6000 TC 35 -20.8000 40.6000 2 3 124
1953014S19035 1953 4 SI MM NOT_NAMED 1953-01-17 21:00:00 TS -21.0614 40.5605 main 295 290 P____P___PP___ SH071953 -20.8925 40.7151 -1 -21.5917 40.1180 99 -20.8925 40.7151 TC 35 -20.8688 40.6939 2 3 134
1953014S19035 1953 4 SI MM NOT_NAMED 1953-01-18 00:00:00 TS -21.1626 40.6522 main 281 277 O____P___OP___ jtwc_sh SH071953 -21.0000 40.8000 -1 -21.6982 40.2376 99 -21.0000 40.8000 TC 35 -20.9521 40.7713 2 3 143
1953014S19035 1953 4 SI MM NOT_NAMED 1953-01-18 03:00:00 TS -21.2854 40.7380 main 277 259 P____P___PP___ SH071953 -21.1124 40.8777 -1 -21.8326 40.3338 99 -21.1124 40.8777 TC 35 -21.0844 40.8629 2 4 149
1953014S19035 1953 4 SI MM NOT_NAMED 1953-01-18 06:00:00 TS -21.4750 40.8500 reunion main 249 233 O____O___OO___ jtwc_sh SH071953 -21.3000 41.0000 -1 -22.0000 40.4000 99 9.90000 -21.3000 41.0000 TC 35 -21.3000 41.0000 2 6 149
1953014S19035 1953 4 SI MM NOT_NAMED 1953-01-18 09:00:00 TS -21.7548 41.0412 main 231 195 P____P___PP___ SH071953 -21.5975 41.2201 -1 -22.2050 40.4487 99 -21.5975 41.2201 TC 35 -21.6191 41.2758 2 8 149
1953014S19035 1953 4 SI MM NOT_NAMED 1953-01-18 12:00:00 TS -22.1166 41.2661 main 195 175 O____P___OP___ jtwc_sh SH071953 -22.0000 41.5000 -1 -22.4429 40.4719 99 -22.0000 41.5000 TC 35 -22.0234 41.5924 2 9 151
1953014S19035 1953 4 SI MM NOT_NAMED 1953-01-18 15:00:00 TS -22.5313 41.5002 main 176 167 P____P___PP___ SH071953 -22.4626 41.8222 -1 -22.7090 40.4685 99 -22.4626 41.8222 TC 35 -22.4909 41.8880 2 10 156
1953014S19035 1953 4 SI MM NOT_NAMED 1953-01-18 18:00:00 TS -22.9997 41.6842 main 172 172 O____P___OO___ jtwc_sh SH071953 -23.0000 42.1000 -1 -22.9987 40.4369 99 -23.0000 42.1000 TC 35 -23.0000 42.1000 2 10 165
1953014S19035 1953 4 SI MM NOT_NAMED 1953-01-18 21:00:00 TS -23.5162 41.7845 main 181 181 P____P___PP___ SH071953 -23.5999 42.2748 -1 -23.3073 40.3757 99 -23.5999 42.2748 TC 35 -23.5579 42.2126 2 11 175
1953014S19035 1953 4 SI MM NOT_NAMED 1953-01-19 00:00:00 TS -24.0434 41.7771 main 186 186 O____P___OP___ jtwc_sh SH071953 -24.2000 42.3000 -1 -23.6301 40.2835 99 -24.2000 42.3000 TC 35 -24.1436 42.2249 2 10 186
1953014S19035 1953 4 SI MM NOT_NAMED 1953-01-19 03:00:00 TS -24.5400 41.6623 main 207 207 P____P___PP___ SH071953 -24.7448 42.1827 -1 -23.9626 40.1588 99 -24.7448 42.1827 TC 35 -24.7077 42.1248 2 10 199
1953014S19035 1953 4 SI MM NOT_NAMED 1953-01-19 06:00:00 TS -24.9750 41.4250 reunion main 246 246 O____O___OO___ jtwc_sh SH071953 -25.2000 41.9000 -1 -24.3000 40.0000 99 9.90000 -25.2000 41.9000 TC 35 -25.2000 41.9000 2 10 214
1953014S19035 1953 4 SI MM NOT_NAMED 1953-01-19 09:00:00 TS -25.3251 41.0789 main 283 283 P____P___PP___ SH071953 -25.5376 41.4949 -1 -24.6584 39.7739 99 -25.5376 41.4949 TC 35 -25.5668 41.5519 2 10 227
1953014S19035 1953 4 SI MM NOT_NAMED 1953-01-19 12:00:00 TS -25.6214 40.6476 main 340 340 O____P___OP___ jtwc_sh SH071953 -25.8000 41.0000 -1 -25.0299 39.5047 99 -25.8000 41.0000 TC 35 -25.8558 41.0856 2 10 234
1953014S19035 1953 4 SI MM NOT_NAMED 1953-01-19 15:00:00 TS -25.9066 40.1932 main 389 389 P____P___PP___ SH071953 -26.0649 40.5073 -1 -25.4048 39.2067 99 -26.0649 40.5073 TC 35 -26.0918 40.5515 2 10 237
1953014S19035 1953 4 SI MM NOT_NAMED 1953-01-19 18:00:00 TS -26.1684 39.7236 main 448 448 O____P___OO___ jtwc_sh SH071953 -26.3000 40.0000 -1 -25.7736 38.8943 99 -26.3000 40.0000 TC 35 -26.3000 40.0000 2 10 240
1953014S19035 1953 4 SI MM NOT_NAMED 1953-01-19 21:00:00 TS -26.3947 39.2458 main 451 432 P____P___PP___ SH071953 -26.5073 39.4997 -1 -26.1268 38.5823 99 -26.5073 39.4997 TC 35 -26.4375 39.4014 2 10 243
1953014S19035 1953 4 SI MM NOT_NAMED 1953-01-20 00:00:00 TS -26.6055 38.7747 main 432 403 O____P___OP___ jtwc_sh SH071953 -26.7000 39.0000 -1 -26.4551 38.2857 99 -26.7000 39.0000 TC 35 -26.5667 38.8132 2 9 245
1953014S19035 1953 4 SI MM NOT_NAMED 1953-01-20 03:00:00 TS -26.7943 38.3044 main 403 394 P____P___PP___ SH071953 -26.8328 38.4398 -1 -26.7492 38.0198 99 -26.8328 38.4398 TC 50 -26.7623 38.3184 2 9 237
1953014S19035 1953 4 SI MM NOT_NAMED 1953-01-20 06:00:00 TS -27.0750 37.9500 reunion main 402 395 O____O___OO___ jtwc_sh SH071953 -27.1000 38.0000 -1 -27.0000 37.8000 99 9.90000 -27.1000 38.0000 TC 65 -27.1000 38.0000 4 9 212
1953014S19035 1953 4 SI MM NOT_NAMED 1953-01-20 09:00:00 TS -27.5622 37.7630 main 429 429 P____P___PP___ SH071953 -27.6596 37.7661 -1 -27.2011 37.6382 99 -27.6596 37.7661 TC 65 -27.7287 37.8815 4 11 188
1953014S19035 1953 4 SI MM NOT_NAMED 1953-01-20 12:00:00 TS -28.1628 37.7713 main 483 483 O____P___OP___ jtwc_sh SH071953 -28.4000 37.8000 -1 -27.3567 37.5308 99 -28.4000 37.8000 TC 65 -28.4945 37.9543 4 13 172
1953014S19035 1953 4 SI MM NOT_NAMED 1953-01-20 15:00:00 TS -28.8054 37.9681 main 538 538 P____P___PP___ SH071953 -29.2300 38.1011 -1 -27.4733 37.4703 99 -29.2300 38.1011 TC 65 -29.2882 38.2000 4 13 159
1953014S19035 1953 4 SI MM NOT_NAMED 1953-01-20 18:00:00 TS -29.3894 38.3122 main 582 582 O____P___OO___ jtwc_sh SH071953 -30.0000 38.6000 -1 -27.5575 37.4490 99 -30.0000 38.6000 TC 65 -30.0000 38.6000 4 12 148
1953014S19035 1953 4 SI MM NOT_NAMED 1953-01-20 21:00:00 TS -29.8028 38.6968 main 627 627 P____P___PP___ SH071953 -30.5246 39.0983 -1 -27.6158 37.4592 99 -30.5246 39.0983 TC 50 -30.5463 39.1314 4 10 134
1953014S19035 1953 4 SI MM NOT_NAMED 1953-01-21 00:00:00 TS -30.1005 39.1642 main 682 682 O____P___OP___ jtwc_sh SH071953 -30.9000 39.7000 -1 -27.6547 37.4930 99 -30.9000 39.7000 TC 35 -30.9473 39.7637 4 10 121
1953014S19035 1953 4 SI MM NOT_NAMED 1953-01-21 03:00:00 TS -30.3394 39.7098 main 724 706 P____P___PP___ SH071953 -31.2137 40.4164 -1 -27.6806 37.5425 99 -31.2137 40.4164 TC 35 -31.2496 40.4641 4 11 115
1953014S19035 1953 4 SI MM NOT_NAMED 1953-01-21 06:00:00 TS -30.5500 40.3000 reunion main 706 O____O___OO___ jtwc_sh SH071953 -31.5000 41.2000 -1 -27.7000 37.6000 99 9.90000 -31.5000 41.2000 TC 35 -31.5000 41.2000 2 11 113

About IBTrACS Database

This database is a web-friendly format of International Best Track Archive for Climate Stewardship (IBTrACS), a global best track data archive curated by NOAA dating back to 1842.

Updated: 2021-10-21